sensor_id;sensor_type;location;lat;lon;timestamp;P1;durP1;ratioP1;P2;durP2;ratioP2
21032;SDS011;10675;47.976;7.824;2022-09-20T00:01:06;0.90;;;0.90;;
21032;SDS011;10675;47.976;7.824;2022-09-20T00:03:37;0.43;;;0.43;;
21032;SDS011;10675;47.976;7.824;2022-09-20T00:06:08;0.63;;;0.63;;
21032;SDS011;10675;47.976;7.824;2022-09-20T00:08:38;2.70;;;0.77;;
21032;SDS011;10675;47.976;7.824;2022-09-20T00:11:06;0.73;;;0.70;;
21032;SDS011;10675;47.976;7.824;2022-09-20T00:13:34;1.47;;;0.70;;
21032;SDS011;10675;47.976;7.824;2022-09-20T00:16:03;1.33;;;0.77;;
21032;SDS011;10675;47.976;7.824;2022-09-20T00:18:30;0.93;;;0.80;;
21032;SDS011;10675;47.976;7.824;2022-09-20T00:20:56;1.80;;;0.70;;
21032;SDS011;10675;47.976;7.824;2022-09-20T00:23:21;0.80;;;0.80;;
21032;SDS011;10675;47.976;7.824;2022-09-20T00:25:53;4.40;;;0.77;;
21032;SDS011;10675;47.976;7.824;2022-09-20T00:28:19;0.60;;;0.60;;
21032;SDS011;10675;47.976;7.824;2022-09-20T00:30:45;2.00;;;0.80;;
21032;SDS011;10675;47.976;7.824;2022-09-20T00:33:10;1.30;;;0.47;;
21032;SDS011;10675;47.976;7.824;2022-09-20T00:35:36;0.80;;;0.80;;
21032;SDS011;10675;47.976;7.824;2022-09-20T00:38:01;4.33;;;0.90;;
21032;SDS011;10675;47.976;7.824;2022-09-20T00:40:27;2.60;;;0.70;;
21032;SDS011;10675;47.976;7.824;2022-09-20T00:42:53;0.70;;;0.70;;
21032;SDS011;10675;47.976;7.824;2022-09-20T00:45:22;0.43;;;0.37;;
21032;SDS011;10675;47.976;7.824;2022-09-20T00:47:54;1.30;;;0.80;;
21032;SDS011;10675;47.976;7.824;2022-09-20T00:50:36;0.77;;;0.57;;
21032;SDS011;10675;47.976;7.824;2022-09-20T00:53:28;1.60;;;0.60;;
21032;SDS011;10675;47.976;7.824;2022-09-20T00:55:59;1.60;;;0.70;;
21032;SDS011;10675;47.976;7.824;2022-09-20T00:58:28;5.07;;;0.80;;
21032;SDS011;10675;47.976;7.824;2022-09-20T01:00:57;6.50;;;0.90;;
21032;SDS011;10675;47.976;7.824;2022-09-20T01:03:24;1.67;;;0.80;;
21032;SDS011;10675;47.976;7.824;2022-09-20T01:05:55;3.10;;;0.73;;
21032;SDS011;10675;47.976;7.824;2022-09-20T01:08:25;1.47;;;0.80;;
21032;SDS011;10675;47.976;7.824;2022-09-20T01:10:51;2.50;;;0.77;;
21032;SDS011;10675;47.976;7.824;2022-09-20T01:13:17;1.70;;;0.70;;
21032;SDS011;10675;47.976;7.824;2022-09-20T01:15:43;0.77;;;0.60;;
21032;SDS011;10675;47.976;7.824;2022-09-20T01:18:11;3.57;;;0.73;;
21032;SDS011;10675;47.976;7.824;2022-09-20T01:20:38;1.07;;;0.60;;
21032;SDS011;10675;47.976;7.824;2022-09-20T01:23:10;2.10;;;0.70;;
21032;SDS011;10675;47.976;7.824;2022-09-20T01:26:04;1.07;;;0.60;;
21032;SDS011;10675;47.976;7.824;2022-09-20T01:28:50;0.50;;;0.50;;
21032;SDS011;10675;47.976;7.824;2022-09-20T01:31:25;1.67;;;0.70;;
21032;SDS011;10675;47.976;7.824;2022-09-20T01:33:58;2.50;;;0.70;;
21032;SDS011;10675;47.976;7.824;2022-09-20T01:41:59;0.83;;;0.80;;
21032;SDS011;10675;47.976;7.824;2022-09-20T01:44:33;3.20;;;0.80;;
21032;SDS011;10675;47.976;7.824;2022-09-20T01:47:21;1.33;;;0.70;;
21032;SDS011;10675;47.976;7.824;2022-09-20T01:52:32;1.33;;;1.10;;
21032;SDS011;10675;47.976;7.824;2022-09-20T01:55:28;2.83;;;0.67;;
21032;SDS011;10675;47.976;7.824;2022-09-20T02:01:05;1.83;;;1.00;;
21032;SDS011;10675;47.976;7.824;2022-09-20T02:04:47;1.50;;;0.63;;
21032;SDS011;10675;47.976;7.824;2022-09-20T02:12:53;1.73;;;0.80;;
21032;SDS011;10675;47.976;7.824;2022-09-20T02:15:38;0.73;;;0.63;;
21032;SDS011;10675;47.976;7.824;2022-09-20T02:18:34;0.83;;;0.70;;
21032;SDS011;10675;47.976;7.824;2022-09-20T02:24:47;2.97;;;1.27;;
21032;SDS011;10675;47.976;7.824;2022-09-20T02:30:07;1.17;;;0.70;;
21032;SDS011;10675;47.976;7.824;2022-09-20T02:33:05;1.33;;;0.70;;
21032;SDS011;10675;47.976;7.824;2022-09-20T02:44:08;0.63;;;0.63;;
21032;SDS011;10675;47.976;7.824;2022-09-20T02:52:34;0.50;;;0.50;;
21032;SDS011;10675;47.976;7.824;2022-09-20T02:55:21;0.60;;;0.60;;
21032;SDS011;10675;47.976;7.824;2022-09-20T02:58:25;0.60;;;0.60;;
21032;SDS011;10675;47.976;7.824;2022-09-20T03:00:58;1.67;;;1.20;;
21032;SDS011;10675;47.976;7.824;2022-09-20T03:03:44;1.23;;;0.87;;
21032;SDS011;10675;47.976;7.824;2022-09-20T03:09:04;1.90;;;0.70;;
21032;SDS011;10675;47.976;7.824;2022-09-20T03:14:23;3.83;;;1.10;;
21032;SDS011;10675;47.976;7.824;2022-09-20T03:17:13;3.50;;;0.90;;
21032;SDS011;10675;47.976;7.824;2022-09-20T03:20:05;2.17;;;0.73;;
21032;SDS011;10675;47.976;7.824;2022-09-20T03:22:41;2.23;;;0.80;;
21032;SDS011;10675;47.976;7.824;2022-09-20T03:28:04;0.73;;;0.70;;
21032;SDS011;10675;47.976;7.824;2022-09-20T03:31:02;0.90;;;0.70;;
21032;SDS011;10675;47.976;7.824;2022-09-20T03:46:46;0.97;;;0.90;;
21032;SDS011;10675;47.976;7.824;2022-09-20T03:55:23;1.23;;;0.83;;
21032;SDS011;10675;47.976;7.824;2022-09-20T04:06:21;2.77;;;1.10;;
21032;SDS011;10675;47.976;7.824;2022-09-20T04:09:11;0.50;;;0.50;;
21032;SDS011;10675;47.976;7.824;2022-09-20T04:20:18;0.63;;;0.63;;
21032;SDS011;10675;47.976;7.824;2022-09-20T04:22:59;0.77;;;0.77;;
21032;SDS011;10675;47.976;7.824;2022-09-20T04:25:36;2.20;;;0.97;;
21032;SDS011;10675;47.976;7.824;2022-09-20T04:31:02;3.00;;;0.80;;
21032;SDS011;10675;47.976;7.824;2022-09-20T04:33:40;2.27;;;0.90;;
21032;SDS011;10675;47.976;7.824;2022-09-20T04:39:10;0.90;;;0.90;;
21032;SDS011;10675;47.976;7.824;2022-09-20T04:47:55;1.13;;;0.97;;
21032;SDS011;10675;47.976;7.824;2022-09-20T05:10:16;2.90;;;1.40;;
21032;SDS011;10675;47.976;7.824;2022-09-20T05:16:10;3.43;;;1.83;;
21032;SDS011;10675;47.976;7.824;2022-09-20T05:19:04;3.70;;;1.60;;
21032;SDS011;10675;47.976;7.824;2022-09-20T05:24:44;4.10;;;1.90;;
21032;SDS011;10675;47.976;7.824;2022-09-20T05:30:11;10.77;;;2.47;;
21032;SDS011;10675;47.976;7.824;2022-09-20T05:47:04;3.17;;;2.17;;
21032;SDS011;10675;47.976;7.824;2022-09-20T05:52:31;2.40;;;1.93;;
21032;SDS011;10675;47.976;7.824;2022-09-20T06:01:23;5.10;;;1.77;;
21032;SDS011;10675;47.976;7.824;2022-09-20T06:03:57;1.97;;;1.70;;
21032;SDS011;10675;47.976;7.824;2022-09-20T06:06:53;4.40;;;2.00;;
21032;SDS011;10675;47.976;7.824;2022-09-20T06:14:56;3.87;;;1.97;;
21032;SDS011;10675;47.976;7.824;2022-09-20T06:20:34;1.83;;;1.60;;
21032;SDS011;10675;47.976;7.824;2022-09-20T06:23:10;3.63;;;1.60;;
21032;SDS011;10675;47.976;7.824;2022-09-20T06:25:38;4.87;;;1.43;;
21032;SDS011;10675;47.976;7.824;2022-09-20T06:30:42;3.23;;;1.27;;
21032;SDS011;10675;47.976;7.824;2022-09-20T06:35:42;3.03;;;1.53;;
21032;SDS011;10675;47.976;7.824;2022-09-20T06:41:16;3.83;;;1.53;;
21032;SDS011;10675;47.976;7.824;2022-09-20T06:43:55;2.20;;;1.43;;
21032;SDS011;10675;47.976;7.824;2022-09-20T06:46:26;1.23;;;1.17;;
21032;SDS011;10675;47.976;7.824;2022-09-20T06:48:54;2.87;;;1.47;;
21032;SDS011;10675;47.976;7.824;2022-09-20T06:51:20;3.00;;;1.30;;
21032;SDS011;10675;47.976;7.824;2022-09-20T06:53:47;1.03;;;1.03;;
21032;SDS011;10675;47.976;7.824;2022-09-20T06:56:14;4.23;;;1.30;;
21032;SDS011;10675;47.976;7.824;2022-09-20T06:58:46;2.27;;;1.40;;
21032;SDS011;10675;47.976;7.824;2022-09-20T07:01:12;3.23;;;1.50;;
21032;SDS011;10675;47.976;7.824;2022-09-20T07:03:38;5.27;;;1.50;;
21032;SDS011;10675;47.976;7.824;2022-09-20T07:06:04;6.63;;;1.60;;
21032;SDS011;10675;47.976;7.824;2022-09-20T07:08:30;3.97;;;1.23;;
21032;SDS011;10675;47.976;7.824;2022-09-20T07:10:56;2.50;;;1.40;;
21032;SDS011;10675;47.976;7.824;2022-09-20T07:13:21;4.10;;;1.37;;
21032;SDS011;10675;47.976;7.824;2022-09-20T07:15:48;1.80;;;1.50;;
21032;SDS011;10675;47.976;7.824;2022-09-20T07:18:14;3.30;;;1.57;;
21032;SDS011;10675;47.976;7.824;2022-09-20T07:20:41;1.67;;;1.30;;
21032;SDS011;10675;47.976;7.824;2022-09-20T07:23:06;6.97;;;1.50;;
21032;SDS011;10675;47.976;7.824;2022-09-20T07:25:32;3.77;;;1.50;;
21032;SDS011;10675;47.976;7.824;2022-09-20T07:27:58;2.90;;;1.70;;
21032;SDS011;10675;47.976;7.824;2022-09-20T07:30:24;3.67;;;1.40;;
21032;SDS011;10675;47.976;7.824;2022-09-20T07:32:49;2.97;;;1.40;;
21032;SDS011;10675;47.976;7.824;2022-09-20T07:35:15;1.80;;;1.20;;
21032;SDS011;10675;47.976;7.824;2022-09-20T07:37:41;3.63;;;1.10;;
21032;SDS011;10675;47.976;7.824;2022-09-20T07:40:07;1.70;;;1.33;;
21032;SDS011;10675;47.976;7.824;2022-09-20T07:42:35;2.27;;;1.20;;
21032;SDS011;10675;47.976;7.824;2022-09-20T07:45:00;1.60;;;1.50;;
21032;SDS011;10675;47.976;7.824;2022-09-20T07:47:31;2.40;;;1.03;;
21032;SDS011;10675;47.976;7.824;2022-09-20T07:49:57;1.60;;;1.30;;
21032;SDS011;10675;47.976;7.824;2022-09-20T07:52:23;1.60;;;1.20;;
21032;SDS011;10675;47.976;7.824;2022-09-20T07:54:48;3.23;;;1.30;;
21032;SDS011;10675;47.976;7.824;2022-09-20T07:57:14;1.63;;;1.07;;
21032;SDS011;10675;47.976;7.824;2022-09-20T07:59:40;3.20;;;1.00;;
21032;SDS011;10675;47.976;7.824;2022-09-20T08:02:06;2.90;;;1.20;;
21032;SDS011;10675;47.976;7.824;2022-09-20T08:04:37;1.57;;;1.13;;
21032;SDS011;10675;47.976;7.824;2022-09-20T08:07:03;1.23;;;1.03;;
21032;SDS011;10675;47.976;7.824;2022-09-20T08:09:29;1.20;;;0.90;;
21032;SDS011;10675;47.976;7.824;2022-09-20T08:11:54;1.93;;;1.13;;
21032;SDS011;10675;47.976;7.824;2022-09-20T08:14:21;0.80;;;0.80;;
21032;SDS011;10675;47.976;7.824;2022-09-20T08:16:48;1.30;;;0.90;;
21032;SDS011;10675;47.976;7.824;2022-09-20T08:19:16;3.13;;;1.20;;
21032;SDS011;10675;47.976;7.824;2022-09-20T08:21:44;2.73;;;0.93;;
21032;SDS011;10675;47.976;7.824;2022-09-20T08:24:10;2.30;;;1.10;;
21032;SDS011;10675;47.976;7.824;2022-09-20T08:26:36;1.33;;;1.00;;
21032;SDS011;10675;47.976;7.824;2022-09-20T08:29:02;1.57;;;1.20;;
21032;SDS011;10675;47.976;7.824;2022-09-20T08:31:29;4.60;;;1.40;;
21032;SDS011;10675;47.976;7.824;2022-09-20T08:33:58;10.43;;;1.30;;
21032;SDS011;10675;47.976;7.824;2022-09-20T08:36:28;1.07;;;1.00;;
21032;SDS011;10675;47.976;7.824;2022-09-20T08:38:55;3.93;;;0.97;;
21032;SDS011;10675;47.976;7.824;2022-09-20T08:41:31;3.87;;;1.37;;
21032;SDS011;10675;47.976;7.824;2022-09-20T08:44:04;2.63;;;1.10;;
21032;SDS011;10675;47.976;7.824;2022-09-20T08:46:36;2.87;;;1.10;;
21032;SDS011;10675;47.976;7.824;2022-09-20T08:49:05;3.17;;;1.10;;
21032;SDS011;10675;47.976;7.824;2022-09-20T08:51:34;2.57;;;1.23;;
21032;SDS011;10675;47.976;7.824;2022-09-20T08:54:09;4.07;;;1.10;;
21032;SDS011;10675;47.976;7.824;2022-09-20T08:56:37;3.50;;;1.37;;
21032;SDS011;10675;47.976;7.824;2022-09-20T08:59:03;2.63;;;1.30;;
21032;SDS011;10675;47.976;7.824;2022-09-20T09:01:30;1.37;;;1.00;;
21032;SDS011;10675;47.976;7.824;2022-09-20T09:04:13;3.17;;;1.10;;
21032;SDS011;10675;47.976;7.824;2022-09-20T09:06:47;5.30;;;1.40;;
21032;SDS011;10675;47.976;7.824;2022-09-20T09:09:19;3.17;;;1.23;;
21032;SDS011;10675;47.976;7.824;2022-09-20T09:11:50;3.97;;;1.23;;
21032;SDS011;10675;47.976;7.824;2022-09-20T09:14:22;2.50;;;1.23;;
21032;SDS011;10675;47.976;7.824;2022-09-20T09:17:10;5.50;;;1.30;;
21032;SDS011;10675;47.976;7.824;2022-09-20T09:22:17;3.33;;;1.20;;
21032;SDS011;10675;47.976;7.824;2022-09-20T09:25:05;3.97;;;1.27;;
21032;SDS011;10675;47.976;7.824;2022-09-20T09:30:21;3.03;;;1.10;;
21032;SDS011;10675;47.976;7.824;2022-09-20T09:35:58;2.17;;;0.93;;
21032;SDS011;10675;47.976;7.824;2022-09-20T09:38:33;2.37;;;1.20;;
21032;SDS011;10675;47.976;7.824;2022-09-20T09:41:04;2.27;;;1.17;;
21032;SDS011;10675;47.976;7.824;2022-09-20T09:43:57;4.22;;;1.40;;
21032;SDS011;10675;47.976;7.824;2022-09-20T09:46:31;1.40;;;0.80;;
21032;SDS011;10675;47.976;7.824;2022-09-20T09:49:14;1.70;;;0.90;;
21032;SDS011;10675;47.976;7.824;2022-09-20T09:52:04;5.93;;;1.27;;
21032;SDS011;10675;47.976;7.824;2022-09-20T10:13:35;3.57;;;1.10;;
21032;SDS011;10675;47.976;7.824;2022-09-20T10:27:41;1.03;;;0.90;;
21032;SDS011;10675;47.976;7.824;2022-09-20T10:38:10;2.20;;;1.07;;
21032;SDS011;10675;47.976;7.824;2022-09-20T10:46:19;1.53;;;0.90;;
21032;SDS011;10675;47.976;7.824;2022-09-20T10:49:33;2.27;;;0.80;;
21032;SDS011;10675;47.976;7.824;2022-09-20T10:55:09;1.70;;;0.87;;
21032;SDS011;10675;47.976;7.824;2022-09-20T11:00:26;1.00;;;0.90;;
21032;SDS011;10675;47.976;7.824;2022-09-20T11:03:24;2.50;;;1.00;;
21032;SDS011;10675;47.976;7.824;2022-09-20T11:08:56;1.30;;;0.90;;
21032;SDS011;10675;47.976;7.824;2022-09-20T11:11:28;1.00;;;0.47;;
21032;SDS011;10675;47.976;7.824;2022-09-20T11:14:10;0.77;;;0.77;;
21032;SDS011;10675;47.976;7.824;2022-09-20T11:22:12;2.63;;;1.03;;
21032;SDS011;10675;47.976;7.824;2022-09-20T11:25:13;1.67;;;0.83;;
21032;SDS011;10675;47.976;7.824;2022-09-20T11:28:14;2.23;;;0.87;;
21032;SDS011;10675;47.976;7.824;2022-09-20T11:36:05;0.90;;;0.80;;
21032;SDS011;10675;47.976;7.824;2022-09-20T11:38:44;1.80;;;0.90;;
21032;SDS011;10675;47.976;7.824;2022-09-20T11:41:16;2.10;;;0.77;;
21032;SDS011;10675;47.976;7.824;2022-09-20T11:43:47;0.70;;;0.70;;
21032;SDS011;10675;47.976;7.824;2022-09-20T11:46:18;2.37;;;0.50;;
21032;SDS011;10675;47.976;7.824;2022-09-20T11:48:52;1.00;;;0.70;;
21032;SDS011;10675;47.976;7.824;2022-09-20T11:54:11;1.57;;;0.70;;
21032;SDS011;10675;47.976;7.824;2022-09-20T11:56:52;0.90;;;0.77;;
21032;SDS011;10675;47.976;7.824;2022-09-20T12:02:03;2.03;;;0.73;;
21032;SDS011;10675;47.976;7.824;2022-09-20T12:04:42;0.60;;;0.60;;
21032;SDS011;10675;47.976;7.824;2022-09-20T12:15:28;2.07;;;0.63;;
21032;SDS011;10675;47.976;7.824;2022-09-20T12:28:56;1.00;;;0.80;;
21032;SDS011;10675;47.976;7.824;2022-09-20T12:36:23;1.23;;;0.60;;
21032;SDS011;10675;47.976;7.824;2022-09-20T12:38:53;0.50;;;0.50;;
21032;SDS011;10675;47.976;7.824;2022-09-20T12:41:43;0.70;;;0.50;;
21032;SDS011;10675;47.976;7.824;2022-09-20T12:44:22;0.93;;;0.60;;
21032;SDS011;10675;47.976;7.824;2022-09-20T12:46:52;1.70;;;0.77;;
21032;SDS011;10675;47.976;7.824;2022-09-20T12:49:30;0.33;;;0.33;;
21032;SDS011;10675;47.976;7.824;2022-09-20T12:52:25;0.73;;;0.73;;
21032;SDS011;10675;47.976;7.824;2022-09-20T12:58:05;5.50;;;0.70;;
21032;SDS011;10675;47.976;7.824;2022-09-20T13:00:45;1.07;;;0.57;;
21032;SDS011;10675;47.976;7.824;2022-09-20T13:05:41;2.47;;;0.80;;
21032;SDS011;10675;47.976;7.824;2022-09-20T13:08:26;2.13;;;0.77;;
21032;SDS011;10675;47.976;7.824;2022-09-20T13:10:58;0.60;;;0.50;;
21032;SDS011;10675;47.976;7.824;2022-09-20T13:19:17;0.70;;;0.53;;
21032;SDS011;10675;47.976;7.824;2022-09-20T13:22:05;1.93;;;0.77;;
21032;SDS011;10675;47.976;7.824;2022-09-20T13:24:47;0.60;;;0.57;;
21032;SDS011;10675;47.976;7.824;2022-09-20T13:27:24;1.53;;;1.00;;
21032;SDS011;10675;47.976;7.824;2022-09-20T13:29:54;1.10;;;0.50;;
21032;SDS011;10675;47.976;7.824;2022-09-20T13:32:33;0.67;;;0.57;;
21032;SDS011;10675;47.976;7.824;2022-09-20T13:37:34;0.40;;;0.40;;
21032;SDS011;10675;47.976;7.824;2022-09-20T13:40:02;2.37;;;0.50;;
21032;SDS011;10675;47.976;7.824;2022-09-20T13:42:29;1.80;;;0.83;;
21032;SDS011;10675;47.976;7.824;2022-09-20T13:44:57;2.33;;;0.80;;
21032;SDS011;10675;47.976;7.824;2022-09-20T13:47:29;2.07;;;0.43;;
21032;SDS011;10675;47.976;7.824;2022-09-20T13:50:38;0.87;;;0.50;;
21032;SDS011;10675;47.976;7.824;2022-09-20T13:52:50;0.70;;;0.70;;
21032;SDS011;10675;47.976;7.824;2022-09-20T14:00:36;1.33;;;0.70;;
21032;SDS011;10675;47.976;7.824;2022-09-20T14:03:17;0.83;;;0.80;;
21032;SDS011;10675;47.976;7.824;2022-09-20T14:05:45;0.63;;;0.63;;
21032;SDS011;10675;47.976;7.824;2022-09-20T14:08:20;0.43;;;0.40;;
21032;SDS011;10675;47.976;7.824;2022-09-20T14:10:49;1.65;;;0.70;;
21032;SDS011;10675;47.976;7.824;2022-09-20T14:13:27;0.77;;;0.50;;
21032;SDS011;10675;47.976;7.824;2022-09-20T14:15:55;1.25;;;0.77;;
21032;SDS011;10675;47.976;7.824;2022-09-20T14:18:22;0.50;;;0.50;;
21032;SDS011;10675;47.976;7.824;2022-09-20T14:20:48;1.17;;;0.85;;
21032;SDS011;10675;47.976;7.824;2022-09-20T14:23:21;2.95;;;0.60;;
21032;SDS011;10675;47.976;7.824;2022-09-20T14:28:40;1.35;;;0.57;;
21032;SDS011;10675;47.976;7.824;2022-09-20T14:31:13;0.80;;;0.30;;
21032;SDS011;10675;47.976;7.824;2022-09-20T14:33:44;0.63;;;0.43;;
21032;SDS011;10675;47.976;7.824;2022-09-20T14:36:13;0.50;;;0.50;;
21032;SDS011;10675;47.976;7.824;2022-09-20T14:38:42;0.65;;;0.57;;
21032;SDS011;10675;47.976;7.824;2022-09-20T14:41:08;1.38;;;0.43;;
21032;SDS011;10675;47.976;7.824;2022-09-20T14:43:34;0.67;;;0.50;;
21032;SDS011;10675;47.976;7.824;2022-09-20T14:46:02;0.80;;;0.60;;
21032;SDS011;10675;47.976;7.824;2022-09-20T14:48:36;0.37;;;0.37;;
21032;SDS011;10675;47.976;7.824;2022-09-20T14:53:40;2.43;;;0.80;;
21032;SDS011;10675;47.976;7.824;2022-09-20T14:56:11;1.37;;;0.60;;
21032;SDS011;10675;47.976;7.824;2022-09-20T15:01:35;2.63;;;0.60;;
21032;SDS011;10675;47.976;7.824;2022-09-20T15:04:08;0.97;;;0.80;;
21032;SDS011;10675;47.976;7.824;2022-09-20T15:06:48;3.47;;;0.70;;
21032;SDS011;10675;47.976;7.824;2022-09-20T15:09:15;3.43;;;0.90;;
21032;SDS011;10675;47.976;7.824;2022-09-20T15:11:42;2.00;;;0.60;;
21032;SDS011;10675;47.976;7.824;2022-09-20T15:14:07;1.20;;;0.70;;
21032;SDS011;10675;47.976;7.824;2022-09-20T15:16:33;1.77;;;0.83;;
21032;SDS011;10675;47.976;7.824;2022-09-20T15:18:58;1.87;;;0.63;;
21032;SDS011;10675;47.976;7.824;2022-09-20T15:21:24;0.73;;;0.60;;
21032;SDS011;10675;47.976;7.824;2022-09-20T15:23:50;1.40;;;0.50;;
21032;SDS011;10675;47.976;7.824;2022-09-20T15:26:16;1.83;;;0.83;;
21032;SDS011;10675;47.976;7.824;2022-09-20T15:28:45;0.87;;;0.60;;
21032;SDS011;10675;47.976;7.824;2022-09-20T15:31:10;0.50;;;0.50;;
21032;SDS011;10675;47.976;7.824;2022-09-20T15:33:38;1.90;;;1.20;;
21032;SDS011;10675;47.976;7.824;2022-09-20T15:36:03;1.33;;;0.60;;
21032;SDS011;10675;47.976;7.824;2022-09-20T15:38:29;1.47;;;0.50;;
21032;SDS011;10675;47.976;7.824;2022-09-20T15:40:55;1.60;;;0.80;;
21032;SDS011;10675;47.976;7.824;2022-09-20T15:43:23;1.00;;;0.60;;
21032;SDS011;10675;47.976;7.824;2022-09-20T15:46:15;1.67;;;0.90;;
21032;SDS011;10675;47.976;7.824;2022-09-20T15:48:50;1.03;;;0.90;;
21032;SDS011;10675;47.976;7.824;2022-09-20T15:51:16;1.30;;;0.70;;
21032;SDS011;10675;47.976;7.824;2022-09-20T15:53:43;0.77;;;0.60;;
21032;SDS011;10675;47.976;7.824;2022-09-20T15:56:20;1.53;;;0.70;;
21032;SDS011;10675;47.976;7.824;2022-09-20T15:58:48;1.00;;;0.80;;
21032;SDS011;10675;47.976;7.824;2022-09-20T16:01:34;0.70;;;0.60;;
21032;SDS011;10675;47.976;7.824;2022-09-20T16:04:04;0.93;;;0.50;;
21032;SDS011;10675;47.976;7.824;2022-09-20T16:06:31;1.27;;;0.60;;
21032;SDS011;10675;47.976;7.824;2022-09-20T16:08:56;1.17;;;0.43;;
21032;SDS011;10675;47.976;7.824;2022-09-20T16:11:22;0.40;;;0.40;;
21032;SDS011;10675;47.976;7.824;2022-09-20T16:13:52;1.17;;;0.67;;
21032;SDS011;10675;47.976;7.824;2022-09-20T16:16:18;0.50;;;0.50;;
21032;SDS011;10675;47.976;7.824;2022-09-20T16:18:44;1.57;;;0.60;;
21032;SDS011;10675;47.976;7.824;2022-09-20T16:21:28;0.73;;;0.43;;
21032;SDS011;10675;47.976;7.824;2022-09-20T16:23:54;3.20;;;0.77;;
21032;SDS011;10675;47.976;7.824;2022-09-20T16:26:21;1.13;;;0.47;;
21032;SDS011;10675;47.976;7.824;2022-09-20T16:28:48;1.40;;;0.60;;
21032;SDS011;10675;47.976;7.824;2022-09-20T16:33:57;0.53;;;0.50;;
21032;SDS011;10675;47.976;7.824;2022-09-20T16:36:24;1.60;;;0.70;;
21032;SDS011;10675;47.976;7.824;2022-09-20T16:38:50;1.40;;;0.87;;
21032;SDS011;10675;47.976;7.824;2022-09-20T16:41:18;1.60;;;0.90;;
21032;SDS011;10675;47.976;7.824;2022-09-20T16:43:43;0.73;;;0.60;;
21032;SDS011;10675;47.976;7.824;2022-09-20T16:46:16;0.47;;;0.47;;
21032;SDS011;10675;47.976;7.824;2022-09-20T16:48:45;0.70;;;0.70;;
21032;SDS011;10675;47.976;7.824;2022-09-20T16:51:12;2.67;;;0.70;;
21032;SDS011;10675;47.976;7.824;2022-09-20T16:53:38;0.93;;;0.67;;
21032;SDS011;10675;47.976;7.824;2022-09-20T16:56:04;1.13;;;0.60;;
21032;SDS011;10675;47.976;7.824;2022-09-20T16:58:31;0.83;;;0.73;;
21032;SDS011;10675;47.976;7.824;2022-09-20T17:01:02;0.70;;;0.67;;
21032;SDS011;10675;47.976;7.824;2022-09-20T17:03:29;0.70;;;0.70;;
21032;SDS011;10675;47.976;7.824;2022-09-20T17:06:04;2.63;;;0.87;;
21032;SDS011;10675;47.976;7.824;2022-09-20T17:08:39;0.70;;;0.70;;
21032;SDS011;10675;47.976;7.824;2022-09-20T17:13:39;1.57;;;0.90;;
21032;SDS011;10675;47.976;7.824;2022-09-20T17:16:11;2.90;;;2.00;;
21032;SDS011;10675;47.976;7.824;2022-09-20T17:18:40;2.40;;;1.13;;
21032;SDS011;10675;47.976;7.824;2022-09-20T17:21:16;0.93;;;0.87;;
21032;SDS011;10675;47.976;7.824;2022-09-20T17:23:45;1.60;;;0.80;;
21032;SDS011;10675;47.976;7.824;2022-09-20T17:26:13;0.60;;;0.60;;
21032;SDS011;10675;47.976;7.824;2022-09-20T17:28:44;1.87;;;1.00;;
21032;SDS011;10675;47.976;7.824;2022-09-20T17:31:12;1.00;;;0.80;;
21032;SDS011;10675;47.976;7.824;2022-09-20T17:33:40;0.80;;;0.60;;
21032;SDS011;10675;47.976;7.824;2022-09-20T17:36:06;3.13;;;1.10;;
21032;SDS011;10675;47.976;7.824;2022-09-20T17:38:34;0.87;;;0.80;;
21032;SDS011;10675;47.976;7.824;2022-09-20T17:41:01;3.13;;;0.70;;
21032;SDS011;10675;47.976;7.824;2022-09-20T17:43:34;2.10;;;0.80;;
21032;SDS011;10675;47.976;7.824;2022-09-20T17:48:37;1.80;;;0.83;;
21032;SDS011;10675;47.976;7.824;2022-09-20T17:51:04;0.60;;;0.60;;
21032;SDS011;10675;47.976;7.824;2022-09-20T17:53:31;2.37;;;0.87;;
21032;SDS011;10675;47.976;7.824;2022-09-20T17:55:58;1.97;;;1.30;;
21032;SDS011;10675;47.976;7.824;2022-09-20T17:58:24;1.10;;;1.00;;
21032;SDS011;10675;47.976;7.824;2022-09-20T18:00:50;0.90;;;0.90;;
21032;SDS011;10675;47.976;7.824;2022-09-20T18:03:20;2.13;;;2.00;;
21032;SDS011;10675;47.976;7.824;2022-09-20T18:05:47;1.67;;;1.53;;
21032;SDS011;10675;47.976;7.824;2022-09-20T18:08:14;1.30;;;1.17;;
21032;SDS011;10675;47.976;7.824;2022-09-20T18:10:40;0.80;;;0.80;;
21032;SDS011;10675;47.976;7.824;2022-09-20T18:13:05;1.23;;;1.00;;
21032;SDS011;10675;47.976;7.824;2022-09-20T18:15:31;2.97;;;1.03;;
21032;SDS011;10675;47.976;7.824;2022-09-20T18:17:57;1.40;;;0.73;;
21032;SDS011;10675;47.976;7.824;2022-09-20T18:20:23;2.70;;;1.10;;
21032;SDS011;10675;47.976;7.824;2022-09-20T18:22:49;1.07;;;1.00;;
21032;SDS011;10675;47.976;7.824;2022-09-20T18:25:14;1.07;;;1.00;;
21032;SDS011;10675;47.976;7.824;2022-09-20T18:27:40;1.37;;;0.80;;
21032;SDS011;10675;47.976;7.824;2022-09-20T18:30:06;1.83;;;1.10;;
21032;SDS011;10675;47.976;7.824;2022-09-20T18:32:32;0.87;;;0.87;;
21032;SDS011;10675;47.976;7.824;2022-09-20T18:34:57;0.73;;;0.73;;
21032;SDS011;10675;47.976;7.824;2022-09-20T18:37:23;0.97;;;0.90;;
21032;SDS011;10675;47.976;7.824;2022-09-20T18:39:48;1.40;;;1.00;;
21032;SDS011;10675;47.976;7.824;2022-09-20T18:42:14;4.17;;;1.13;;
21032;SDS011;10675;47.976;7.824;2022-09-20T18:44:40;1.87;;;0.90;;
21032;SDS011;10675;47.976;7.824;2022-09-20T18:47:08;1.77;;;1.00;;
21032;SDS011;10675;47.976;7.824;2022-09-20T18:49:33;0.90;;;0.80;;
21032;SDS011;10675;47.976;7.824;2022-09-20T18:51:59;1.57;;;1.00;;
21032;SDS011;10675;47.976;7.824;2022-09-20T18:54:25;0.80;;;0.80;;
21032;SDS011;10675;47.976;7.824;2022-09-20T18:56:54;0.80;;;0.80;;
21032;SDS011;10675;47.976;7.824;2022-09-20T18:59:21;1.33;;;1.00;;
21032;SDS011;10675;47.976;7.824;2022-09-20T19:09:56;6.43;;;3.77;;
21032;SDS011;10675;47.976;7.824;2022-09-20T19:18:19;3.60;;;1.90;;
21032;SDS011;10675;47.976;7.824;2022-09-20T19:20:57;2.90;;;1.60;;
21032;SDS011;10675;47.976;7.824;2022-09-20T19:23:44;1.63;;;1.30;;
21032;SDS011;10675;47.976;7.824;2022-09-20T19:26:32;2.03;;;1.20;;
21032;SDS011;10675;47.976;7.824;2022-09-20T19:29:02;0.80;;;0.80;;
21032;SDS011;10675;47.976;7.824;2022-09-20T19:31:34;0.53;;;0.53;;
21032;SDS011;10675;47.976;7.824;2022-09-20T19:34:00;1.70;;;0.87;;
21032;SDS011;10675;47.976;7.824;2022-09-20T19:36:39;0.83;;;0.57;;
21032;SDS011;10675;47.976;7.824;2022-09-20T19:52:57;1.43;;;1.07;;
21032;SDS011;10675;47.976;7.824;2022-09-20T19:55:28;1.57;;;1.10;;
21032;SDS011;10675;47.976;7.824;2022-09-20T19:57:58;1.33;;;1.23;;
21032;SDS011;10675;47.976;7.824;2022-09-20T20:00:24;1.27;;;1.23;;
21032;SDS011;10675;47.976;7.824;2022-09-20T20:02:50;2.20;;;1.90;;
21032;SDS011;10675;47.976;7.824;2022-09-20T20:05:17;1.73;;;1.03;;
21032;SDS011;10675;47.976;7.824;2022-09-20T20:16:23;3.20;;;1.27;;
21032;SDS011;10675;47.976;7.824;2022-09-20T20:21:44;1.20;;;0.80;;
21032;SDS011;10675;47.976;7.824;2022-09-20T20:24:24;3.03;;;1.20;;
21032;SDS011;10675;47.976;7.824;2022-09-20T20:27:35;1.63;;;1.40;;
21032;SDS011;10675;47.976;7.824;2022-09-20T20:30:00;2.50;;;1.10;;
21032;SDS011;10675;47.976;7.824;2022-09-20T20:32:26;1.50;;;1.10;;
21032;SDS011;10675;47.976;7.824;2022-09-20T20:34:52;1.00;;;1.00;;
21032;SDS011;10675;47.976;7.824;2022-09-20T20:37:17;1.73;;;1.30;;
21032;SDS011;10675;47.976;7.824;2022-09-20T20:39:42;1.67;;;1.20;;
21032;SDS011;10675;47.976;7.824;2022-09-20T20:42:08;1.77;;;1.40;;
21032;SDS011;10675;47.976;7.824;2022-09-20T20:44:36;3.23;;;1.30;;
21032;SDS011;10675;47.976;7.824;2022-09-20T20:47:02;1.27;;;0.90;;
21032;SDS011;10675;47.976;7.824;2022-09-20T20:49:29;2.17;;;1.40;;
21032;SDS011;10675;47.976;7.824;2022-09-20T20:51:55;2.90;;;1.43;;
21032;SDS011;10675;47.976;7.824;2022-09-20T20:54:22;0.90;;;0.70;;
21032;SDS011;10675;47.976;7.824;2022-09-20T20:56:48;0.90;;;0.90;;